sensor_id;sensor_type;location;lat;lon;timestamp;P1;durP1;ratioP1;P2;durP2;ratioP2
63112;SDS011;49206;48.020;21.378;2023-07-30T00:00:07;7.90;;;5.28;;
63112;SDS011;49206;48.020;21.378;2023-07-30T00:01:15;6.95;;;5.25;;
63112;SDS011;49206;48.020;21.378;2023-07-30T00:02:17;6.88;;;5.38;;
63112;SDS011;49206;48.020;21.378;2023-07-30T00:03:20;8.27;;;5.35;;
63112;SDS011;49206;48.020;21.378;2023-07-30T00:04:23;8.85;;;5.30;;
63112;SDS011;49206;48.020;21.378;2023-07-30T00:05:25;6.78;;;5.15;;
63112;SDS011;49206;48.020;21.378;2023-07-30T00:06:27;6.82;;;5.60;;
63112;SDS011;49206;48.020;21.378;2023-07-30T00:07:30;8.35;;;5.53;;
63112;SDS011;49206;48.020;21.378;2023-07-30T00:08:32;6.70;;;5.68;;
63112;SDS011;49206;48.020;21.378;2023-07-30T00:09:34;7.25;;;5.78;;
63112;SDS011;49206;48.020;21.378;2023-07-30T00:10:37;7.45;;;5.80;;
63112;SDS011;49206;48.020;21.378;2023-07-30T00:11:39;7.93;;;5.72;;
63112;SDS011;49206;48.020;21.378;2023-07-30T00:12:42;8.77;;;5.90;;
63112;SDS011;49206;48.020;21.378;2023-07-30T00:13:44;7.53;;;5.70;;
63112;SDS011;49206;48.020;21.378;2023-07-30T00:14:46;6.63;;;5.88;;
63112;SDS011;49206;48.020;21.378;2023-07-30T00:15:49;9.45;;;6.78;;
63112;SDS011;49206;48.020;21.378;2023-07-30T00:16:51;7.93;;;6.32;;
63112;SDS011;49206;48.020;21.378;2023-07-30T00:17:54;10.27;;;6.75;;
63112;SDS011;49206;48.020;21.378;2023-07-30T00:18:56;7.00;;;5.95;;
63112;SDS011;49206;48.020;21.378;2023-07-30T00:19:59;10.15;;;6.07;;
63112;SDS011;49206;48.020;21.378;2023-07-30T00:21:01;7.72;;;5.78;;
63112;SDS011;49206;48.020;21.378;2023-07-30T00:22:03;6.30;;;5.28;;
63112;SDS011;49206;48.020;21.378;2023-07-30T00:23:06;7.78;;;5.65;;
63112;SDS011;49206;48.020;21.378;2023-07-30T00:24:08;8.88;;;6.07;;
63112;SDS011;49206;48.020;21.378;2023-07-30T00:25:10;11.80;;;5.68;;
63112;SDS011;49206;48.020;21.378;2023-07-30T00:26:13;6.53;;;5.70;;
63112;SDS011;49206;48.020;21.378;2023-07-30T00:27:15;7.50;;;5.28;;
63112;SDS011;49206;48.020;21.378;2023-07-30T00:28:17;8.77;;;6.13;;
63112;SDS011;49206;48.020;21.378;2023-07-30T00:29:20;6.18;;;5.35;;
63112;SDS011;49206;48.020;21.378;2023-07-30T00:30:22;6.28;;;5.40;;
63112;SDS011;49206;48.020;21.378;2023-07-30T00:31:25;7.68;;;5.70;;
63112;SDS011;49206;48.020;21.378;2023-07-30T00:32:27;9.50;;;5.80;;
63112;SDS011;49206;48.020;21.378;2023-07-30T00:33:29;6.80;;;5.85;;
63112;SDS011;49206;48.020;21.378;2023-07-30T00:34:32;7.20;;;5.68;;
63112;SDS011;49206;48.020;21.378;2023-07-30T00:35:34;7.38;;;5.28;;
63112;SDS011;49206;48.020;21.378;2023-07-30T00:36:36;7.07;;;6.15;;
63112;SDS011;49206;48.020;21.378;2023-07-30T00:38:42;7.78;;;5.32;;
63112;SDS011;49206;48.020;21.378;2023-07-30T00:39:45;7.22;;;6.20;;
63112;SDS011;49206;48.020;21.378;2023-07-30T00:40:47;7.18;;;5.88;;
63112;SDS011;49206;48.020;21.378;2023-07-30T00:41:50;7.10;;;6.00;;
63112;SDS011;49206;48.020;21.378;2023-07-30T00:42:52;5.57;;;4.90;;
63112;SDS011;49206;48.020;21.378;2023-07-30T00:43:55;7.93;;;5.82;;
63112;SDS011;49206;48.020;21.378;2023-07-30T00:44:57;7.57;;;5.88;;
63112;SDS011;49206;48.020;21.378;2023-07-30T00:45:59;6.00;;;5.40;;
63112;SDS011;49206;48.020;21.378;2023-07-30T00:47:02;5.97;;;5.47;;
63112;SDS011;49206;48.020;21.378;2023-07-30T00:48:05;6.80;;;5.32;;
63112;SDS011;49206;48.020;21.378;2023-07-30T00:49:07;6.85;;;5.60;;
63112;SDS011;49206;48.020;21.378;2023-07-30T00:50:10;5.90;;;5.28;;
63112;SDS011;49206;48.020;21.378;2023-07-30T00:51:15;7.18;;;5.95;;
63112;SDS011;49206;48.020;21.378;2023-07-30T00:52:19;6.07;;;5.50;;
63112;SDS011;49206;48.020;21.378;2023-07-30T00:53:23;6.25;;;5.57;;
63112;SDS011;49206;48.020;21.378;2023-07-30T00:54:26;6.10;;;5.38;;
63112;SDS011;49206;48.020;21.378;2023-07-30T00:55:29;5.93;;;4.97;;
63112;SDS011;49206;48.020;21.378;2023-07-30T00:56:31;8.48;;;5.93;;
63112;SDS011;49206;48.020;21.378;2023-07-30T00:57:34;7.57;;;5.63;;
63112;SDS011;49206;48.020;21.378;2023-07-30T00:58:38;8.50;;;5.65;;
63112;SDS011;49206;48.020;21.378;2023-07-30T00:59:40;6.53;;;5.82;;
63112;SDS011;49206;48.020;21.378;2023-07-30T01:00:43;7.63;;;5.60;;
63112;SDS011;49206;48.020;21.378;2023-07-30T01:01:45;6.38;;;5.68;;
63112;SDS011;49206;48.020;21.378;2023-07-30T01:02:49;6.45;;;5.43;;
63112;SDS011;49206;48.020;21.378;2023-07-30T01:03:53;8.13;;;5.28;;
63112;SDS011;49206;48.020;21.378;2023-07-30T01:04:56;7.25;;;5.50;;
63112;SDS011;49206;48.020;21.378;2023-07-30T01:05:59;7.43;;;5.43;;
63112;SDS011;49206;48.020;21.378;2023-07-30T01:07:01;5.40;;;4.90;;
63112;SDS011;49206;48.020;21.378;2023-07-30T01:08:04;5.82;;;5.28;;
63112;SDS011;49206;48.020;21.378;2023-07-30T01:09:06;5.93;;;5.07;;
63112;SDS011;49206;48.020;21.378;2023-07-30T01:10:09;6.95;;;5.10;;
63112;SDS011;49206;48.020;21.378;2023-07-30T01:11:12;6.45;;;5.00;;
63112;SDS011;49206;48.020;21.378;2023-07-30T01:12:15;7.30;;;4.95;;
63112;SDS011;49206;48.020;21.378;2023-07-30T01:13:17;7.80;;;5.30;;
63112;SDS011;49206;48.020;21.378;2023-07-30T01:14:20;5.95;;;5.38;;
63112;SDS011;49206;48.020;21.378;2023-07-30T01:15:22;6.10;;;5.50;;
63112;SDS011;49206;48.020;21.378;2023-07-30T01:16:25;6.07;;;5.47;;
63112;SDS011;49206;48.020;21.378;2023-07-30T01:17:27;6.72;;;5.50;;
63112;SDS011;49206;48.020;21.378;2023-07-30T01:18:30;7.50;;;6.22;;
63112;SDS011;49206;48.020;21.378;2023-07-30T01:19:32;7.68;;;5.40;;
63112;SDS011;49206;48.020;21.378;2023-07-30T01:20:35;7.63;;;6.30;;
63112;SDS011;49206;48.020;21.378;2023-07-30T01:21:37;7.40;;;6.20;;
63112;SDS011;49206;48.020;21.378;2023-07-30T01:22:40;6.07;;;5.13;;
63112;SDS011;49206;48.020;21.378;2023-07-30T01:23:42;6.07;;;5.30;;
63112;SDS011;49206;48.020;21.378;2023-07-30T01:24:45;6.43;;;5.22;;
63112;SDS011;49206;48.020;21.378;2023-07-30T01:25:48;6.70;;;6.00;;
63112;SDS011;49206;48.020;21.378;2023-07-30T01:26:55;6.40;;;5.57;;
63112;SDS011;49206;48.020;21.378;2023-07-30T01:27:59;9.10;;;6.65;;
63112;SDS011;49206;48.020;21.378;2023-07-30T01:29:04;6.93;;;5.82;;
63112;SDS011;49206;48.020;21.378;2023-07-30T01:30:30;8.23;;;6.05;;
63112;SDS011;49206;48.020;21.378;2023-07-30T01:31:35;8.00;;;6.28;;
63112;SDS011;49206;48.020;21.378;2023-07-30T01:32:40;6.63;;;5.93;;
63112;SDS011;49206;48.020;21.378;2023-07-30T01:33:43;6.95;;;5.63;;
63112;SDS011;49206;48.020;21.378;2023-07-30T01:34:49;6.78;;;6.03;;
63112;SDS011;49206;48.020;21.378;2023-07-30T01:35:55;7.10;;;5.72;;
63112;SDS011;49206;48.020;21.378;2023-07-30T01:36:58;6.78;;;5.75;;
63112;SDS011;49206;48.020;21.378;2023-07-30T01:38:01;9.73;;;6.07;;
63112;SDS011;49206;48.020;21.378;2023-07-30T01:39:05;7.88;;;6.03;;
63112;SDS011;49206;48.020;21.378;2023-07-30T01:40:08;8.10;;;5.47;;
63112;SDS011;49206;48.020;21.378;2023-07-30T01:41:11;9.57;;;5.70;;
63112;SDS011;49206;48.020;21.378;2023-07-30T01:42:14;7.75;;;6.00;;
63112;SDS011;49206;48.020;21.378;2023-07-30T01:43:16;7.57;;;5.57;;
63112;SDS011;49206;48.020;21.378;2023-07-30T01:44:18;6.07;;;5.47;;
63112;SDS011;49206;48.020;21.378;2023-07-30T01:45:21;7.53;;;5.40;;
63112;SDS011;49206;48.020;21.378;2023-07-30T01:46:23;7.63;;;5.20;;
63112;SDS011;49206;48.020;21.378;2023-07-30T01:47:25;6.60;;;5.40;;
63112;SDS011;49206;48.020;21.378;2023-07-30T01:48:28;9.60;;;5.90;;
63112;SDS011;49206;48.020;21.378;2023-07-30T01:49:30;7.03;;;5.68;;
63112;SDS011;49206;48.020;21.378;2023-07-30T01:50:33;6.30;;;5.70;;
63112;SDS011;49206;48.020;21.378;2023-07-30T01:51:35;7.07;;;5.85;;
63112;SDS011;49206;48.020;21.378;2023-07-30T01:52:38;5.97;;;5.45;;
63112;SDS011;49206;48.020;21.378;2023-07-30T01:53:40;6.00;;;5.05;;
63112;SDS011;49206;48.020;21.378;2023-07-30T01:54:43;6.22;;;5.47;;
63112;SDS011;49206;48.020;21.378;2023-07-30T01:55:45;7.53;;;5.53;;
63112;SDS011;49206;48.020;21.378;2023-07-30T01:56:48;7.68;;;5.65;;
63112;SDS011;49206;48.020;21.378;2023-07-30T01:57:50;6.35;;;5.78;;
63112;SDS011;49206;48.020;21.378;2023-07-30T01:58:53;9.85;;;5.22;;
63112;SDS011;49206;48.020;21.378;2023-07-30T01:59:56;7.45;;;5.22;;
63112;SDS011;49206;48.020;21.378;2023-07-30T02:00:58;7.10;;;5.57;;
63112;SDS011;49206;48.020;21.378;2023-07-30T02:02:01;6.40;;;5.20;;
63112;SDS011;49206;48.020;21.378;2023-07-30T02:03:04;6.72;;;5.28;;
63112;SDS011;49206;48.020;21.378;2023-07-30T02:04:06;8.45;;;5.85;;
63112;SDS011;49206;48.020;21.378;2023-07-30T02:05:09;8.07;;;5.90;;
63112;SDS011;49206;48.020;21.378;2023-07-30T02:06:13;7.10;;;5.57;;
63112;SDS011;49206;48.020;21.378;2023-07-30T02:07:15;13.23;;;6.07;;
63112;SDS011;49206;48.020;21.378;2023-07-30T02:08:17;7.30;;;5.75;;
63112;SDS011;49206;48.020;21.378;2023-07-30T02:09:20;11.75;;;5.47;;
63112;SDS011;49206;48.020;21.378;2023-07-30T02:10:24;7.50;;;5.82;;
63112;SDS011;49206;48.020;21.378;2023-07-30T02:11:27;7.50;;;6.00;;
63112;SDS011;49206;48.020;21.378;2023-07-30T02:12:30;5.90;;;5.18;;
63112;SDS011;49206;48.020;21.378;2023-07-30T02:13:32;8.05;;;6.07;;
63112;SDS011;49206;48.020;21.378;2023-07-30T02:14:35;6.18;;;5.25;;
63112;SDS011;49206;48.020;21.378;2023-07-30T02:15:40;5.57;;;4.95;;
63112;SDS011;49206;48.020;21.378;2023-07-30T02:16:44;7.32;;;5.18;;
63112;SDS011;49206;48.020;21.378;2023-07-30T02:17:47;8.38;;;5.85;;
63112;SDS011;49206;48.020;21.378;2023-07-30T02:18:49;7.10;;;5.07;;
63112;SDS011;49206;48.020;21.378;2023-07-30T02:19:51;7.40;;;5.55;;
63112;SDS011;49206;48.020;21.378;2023-07-30T02:20:54;7.70;;;5.68;;
63112;SDS011;49206;48.020;21.378;2023-07-30T02:21:56;6.82;;;5.22;;
63112;SDS011;49206;48.020;21.378;2023-07-30T02:22:58;9.02;;;5.90;;
63112;SDS011;49206;48.020;21.378;2023-07-30T02:24:01;6.72;;;5.10;;
63112;SDS011;49206;48.020;21.378;2023-07-30T02:25:03;7.00;;;5.10;;
63112;SDS011;49206;48.020;21.378;2023-07-30T02:26:06;8.00;;;5.65;;
63112;SDS011;49206;48.020;21.378;2023-07-30T02:27:08;6.75;;;4.97;;
63112;SDS011;49206;48.020;21.378;2023-07-30T02:28:11;7.28;;;5.50;;
63112;SDS011;49206;48.020;21.378;2023-07-30T02:29:16;7.15;;;5.30;;
63112;SDS011;49206;48.020;21.378;2023-07-30T02:30:18;7.63;;;5.10;;
63112;SDS011;49206;48.020;21.378;2023-07-30T02:31:21;6.85;;;5.40;;
63112;SDS011;49206;48.020;21.378;2023-07-30T02:32:23;7.50;;;5.88;;
63112;SDS011;49206;48.020;21.378;2023-07-30T02:33:26;7.53;;;5.90;;
63112;SDS011;49206;48.020;21.378;2023-07-30T02:34:28;7.70;;;6.18;;
63112;SDS011;49206;48.020;21.378;2023-07-30T02:35:31;8.05;;;6.15;;
63112;SDS011;49206;48.020;21.378;2023-07-30T02:36:33;8.00;;;6.47;;
63112;SDS011;49206;48.020;21.378;2023-07-30T02:37:36;8.73;;;6.22;;
63112;SDS011;49206;48.020;21.378;2023-07-30T02:38:38;9.35;;;6.60;;
63112;SDS011;49206;48.020;21.378;2023-07-30T02:39:41;8.15;;;6.85;;
63112;SDS011;49206;48.020;21.378;2023-07-30T02:40:43;9.82;;;6.30;;
63112;SDS011;49206;48.020;21.378;2023-07-30T02:41:45;6.38;;;5.70;;
63112;SDS011;49206;48.020;21.378;2023-07-30T02:42:48;7.28;;;6.22;;
63112;SDS011;49206;48.020;21.378;2023-07-30T02:43:50;8.30;;;6.15;;
63112;SDS011;49206;48.020;21.378;2023-07-30T02:44:53;9.00;;;6.43;;
63112;SDS011;49206;48.020;21.378;2023-07-30T02:45:55;7.40;;;6.10;;
63112;SDS011;49206;48.020;21.378;2023-07-30T02:46:58;9.20;;;7.22;;
63112;SDS011;49206;48.020;21.378;2023-07-30T02:48:00;9.65;;;6.18;;
63112;SDS011;49206;48.020;21.378;2023-07-30T02:49:03;10.48;;;6.32;;
63112;SDS011;49206;48.020;21.378;2023-07-30T02:50:05;9.50;;;5.90;;
63112;SDS011;49206;48.020;21.378;2023-07-30T02:51:08;7.53;;;6.07;;
63112;SDS011;49206;48.020;21.378;2023-07-30T02:52:10;6.97;;;5.35;;
63112;SDS011;49206;48.020;21.378;2023-07-30T02:53:13;6.45;;;5.53;;
63112;SDS011;49206;48.020;21.378;2023-07-30T02:54:15;6.30;;;5.65;;
63112;SDS011;49206;48.020;21.378;2023-07-30T02:55:22;8.02;;;6.20;;
63112;SDS011;49206;48.020;21.378;2023-07-30T02:56:25;8.15;;;6.03;;
63112;SDS011;49206;48.020;21.378;2023-07-30T02:57:27;6.43;;;5.47;;
63112;SDS011;49206;48.020;21.378;2023-07-30T02:58:30;7.75;;;6.32;;
63112;SDS011;49206;48.020;21.378;2023-07-30T02:59:33;8.02;;;5.97;;
63112;SDS011;49206;48.020;21.378;2023-07-30T03:00:38;7.22;;;6.53;;
63112;SDS011;49206;48.020;21.378;2023-07-30T03:01:40;7.22;;;6.22;;
63112;SDS011;49206;48.020;21.378;2023-07-30T03:02:43;8.00;;;6.70;;
63112;SDS011;49206;48.020;21.378;2023-07-30T03:03:46;6.60;;;5.90;;
63112;SDS011;49206;48.020;21.378;2023-07-30T03:04:49;7.63;;;5.88;;
63112;SDS011;49206;48.020;21.378;2023-07-30T03:05:51;9.07;;;6.07;;
63112;SDS011;49206;48.020;21.378;2023-07-30T03:06:54;8.35;;;6.28;;
63112;SDS011;49206;48.020;21.378;2023-07-30T03:07:56;7.72;;;6.90;;
63112;SDS011;49206;48.020;21.378;2023-07-30T03:08:59;7.40;;;6.47;;
63112;SDS011;49206;48.020;21.378;2023-07-30T03:10:01;12.35;;;8.70;;
63112;SDS011;49206;48.020;21.378;2023-07-30T03:11:04;14.88;;;9.70;;
63112;SDS011;49206;48.020;21.378;2023-07-30T03:12:06;25.42;;;16.35;;
63112;SDS011;49206;48.020;21.378;2023-07-30T03:13:09;17.23;;;11.85;;
63112;SDS011;49206;48.020;21.378;2023-07-30T03:14:12;18.88;;;12.25;;
63112;SDS011;49206;48.020;21.378;2023-07-30T03:15:14;16.58;;;10.57;;
63112;SDS011;49206;48.020;21.378;2023-07-30T03:16:16;12.63;;;10.13;;
63112;SDS011;49206;48.020;21.378;2023-07-30T03:17:19;14.80;;;10.20;;
63112;SDS011;49206;48.020;21.378;2023-07-30T03:18:21;11.77;;;9.55;;
63112;SDS011;49206;48.020;21.378;2023-07-30T03:19:24;10.38;;;8.43;;
63112;SDS011;49206;48.020;21.378;2023-07-30T03:20:27;10.85;;;9.15;;
63112;SDS011;49206;48.020;21.378;2023-07-30T03:21:29;12.27;;;9.85;;
63112;SDS011;49206;48.020;21.378;2023-07-30T03:22:32;12.38;;;8.32;;
63112;SDS011;49206;48.020;21.378;2023-07-30T03:23:34;9.70;;;8.23;;
63112;SDS011;49206;48.020;21.378;2023-07-30T03:24:36;13.00;;;8.02;;
63112;SDS011;49206;48.020;21.378;2023-07-30T03:25:39;12.20;;;8.25;;
63112;SDS011;49206;48.020;21.378;2023-07-30T03:26:41;13.68;;;8.13;;
63112;SDS011;49206;48.020;21.378;2023-07-30T03:27:44;10.52;;;8.50;;
63112;SDS011;49206;48.020;21.378;2023-07-30T03:28:46;9.32;;;8.30;;
63112;SDS011;49206;48.020;21.378;2023-07-30T03:29:48;10.35;;;8.73;;
63112;SDS011;49206;48.020;21.378;2023-07-30T03:30:51;12.27;;;9.27;;
63112;SDS011;49206;48.020;21.378;2023-07-30T03:31:54;12.02;;;7.78;;
63112;SDS011;49206;48.020;21.378;2023-07-30T03:32:56;10.45;;;8.27;;
63112;SDS011;49206;48.020;21.378;2023-07-30T03:33:59;8.77;;;7.65;;
63112;SDS011;49206;48.020;21.378;2023-07-30T03:35:02;10.38;;;7.65;;
63112;SDS011;49206;48.020;21.378;2023-07-30T03:36:04;9.55;;;7.82;;
63112;SDS011;49206;48.020;21.378;2023-07-30T03:37:07;9.65;;;7.72;;
63112;SDS011;49206;48.020;21.378;2023-07-30T03:38:09;12.63;;;9.82;;
63112;SDS011;49206;48.020;21.378;2023-07-30T03:39:11;12.50;;;9.38;;
63112;SDS011;49206;48.020;21.378;2023-07-30T03:40:14;9.93;;;7.95;;
63112;SDS011;49206;48.020;21.378;2023-07-30T03:41:16;10.73;;;7.95;;
63112;SDS011;49206;48.020;21.378;2023-07-30T03:42:19;10.25;;;7.53;;
63112;SDS011;49206;48.020;21.378;2023-07-30T03:43:22;13.25;;;8.45;;
63112;SDS011;49206;48.020;21.378;2023-07-30T03:44:25;9.05;;;7.90;;
63112;SDS011;49206;48.020;21.378;2023-07-30T03:45:27;10.43;;;8.57;;
63112;SDS011;49206;48.020;21.378;2023-07-30T03:46:29;11.70;;;8.43;;
63112;SDS011;49206;48.020;21.378;2023-07-30T03:47:32;13.32;;;8.18;;
63112;SDS011;49206;48.020;21.378;2023-07-30T03:48:34;11.60;;;8.23;;
63112;SDS011;49206;48.020;21.378;2023-07-30T03:49:37;9.02;;;8.07;;
63112;SDS011;49206;48.020;21.378;2023-07-30T03:50:39;10.93;;;7.90;;
63112;SDS011;49206;48.020;21.378;2023-07-30T03:51:42;9.02;;;7.78;;
63112;SDS011;49206;48.020;21.378;2023-07-30T03:52:44;11.25;;;8.40;;
63112;SDS011;49206;48.020;21.378;2023-07-30T03:53:46;10.50;;;7.80;;
63112;SDS011;49206;48.020;21.378;2023-07-30T03:54:49;9.98;;;8.48;;
63112;SDS011;49206;48.020;21.378;2023-07-30T03:55:52;9.38;;;7.65;;
63112;SDS011;49206;48.020;21.378;2023-07-30T03:56:55;11.70;;;8.48;;
63112;SDS011;49206;48.020;21.378;2023-07-30T03:57:57;11.95;;;8.65;;
63112;SDS011;49206;48.020;21.378;2023-07-30T03:59:00;11.23;;;8.07;;
63112;SDS011;49206;48.020;21.378;2023-07-30T04:00:03;10.98;;;8.45;;
63112;SDS011;49206;48.020;21.378;2023-07-30T04:01:14;12.43;;;8.40;;
63112;SDS011;49206;48.020;21.378;2023-07-30T04:02:17;11.18;;;7.95;;
63112;SDS011;49206;48.020;21.378;2023-07-30T04:03:19;14.70;;;8.60;;
63112;SDS011;49206;48.020;21.378;2023-07-30T04:04:22;10.35;;;8.88;;
63112;SDS011;49206;48.020;21.378;2023-07-30T04:05:24;10.63;;;8.77;;
63112;SDS011;49206;48.020;21.378;2023-07-30T04:06:27;10.15;;;8.90;;
63112;SDS011;49206;48.020;21.378;2023-07-30T04:07:29;10.48;;;9.18;;
63112;SDS011;49206;48.020;21.378;2023-07-30T04:08:32;12.35;;;8.60;;
63112;SDS011;49206;48.020;21.378;2023-07-30T04:09:34;14.02;;;9.13;;
63112;SDS011;49206;48.020;21.378;2023-07-30T04:10:36;10.32;;;7.72;;
63112;SDS011;49206;48.020;21.378;2023-07-30T04:11:38;12.15;;;8.90;;
63112;SDS011;49206;48.020;21.378;2023-07-30T04:12:41;9.20;;;8.00;;
63112;SDS011;49206;48.020;21.378;2023-07-30T04:13:43;12.10;;;8.80;;
63112;SDS011;49206;48.020;21.378;2023-07-30T04:14:46;11.32;;;8.82;;
63112;SDS011;49206;48.020;21.378;2023-07-30T04:15:48;9.57;;;8.57;;
63112;SDS011;49206;48.020;21.378;2023-07-30T04:16:50;11.10;;;8.32;;
63112;SDS011;49206;48.020;21.378;2023-07-30T04:17:53;9.50;;;8.43;;
63112;SDS011;49206;48.020;21.378;2023-07-30T04:18:56;12.68;;;8.90;;
63112;SDS011;49206;48.020;21.378;2023-07-30T04:19:58;11.80;;;8.70;;
63112;SDS011;49206;48.020;21.378;2023-07-30T04:21:01;11.20;;;9.40;;
63112;SDS011;49206;48.020;21.378;2023-07-30T04:22:04;13.40;;;10.00;;
63112;SDS011;49206;48.020;21.378;2023-07-30T04:23:06;13.52;;;10.48;;
63112;SDS011;49206;48.020;21.378;2023-07-30T04:24:08;13.70;;;10.50;;
63112;SDS011;49206;48.020;21.378;2023-07-30T04:25:11;12.32;;;10.35;;
63112;SDS011;49206;48.020;21.378;2023-07-30T04:26:13;14.90;;;9.48;;
63112;SDS011;49206;48.020;21.378;2023-07-30T04:27:16;12.30;;;10.57;;
63112;SDS011;49206;48.020;21.378;2023-07-30T04:28:18;12.45;;;10.18;;
63112;SDS011;49206;48.020;21.378;2023-07-30T04:29:21;13.88;;;10.32;;
63112;SDS011;49206;48.020;21.378;2023-07-30T04:30:24;15.85;;;10.25;;
63112;SDS011;49206;48.020;21.378;2023-07-30T04:31:27;13.32;;;10.45;;
63112;SDS011;49206;48.020;21.378;2023-07-30T04:32:29;13.48;;;11.40;;
63112;SDS011;49206;48.020;21.378;2023-07-30T04:33:32;11.57;;;10.20;;
63112;SDS011;49206;48.020;21.378;2023-07-30T04:34:34;12.00;;;10.63;;
63112;SDS011;49206;48.020;21.378;2023-07-30T04:35:37;12.50;;;11.18;;
63112;SDS011;49206;48.020;21.378;2023-07-30T04:36:39;12.70;;;10.75;;
63112;SDS011;49206;48.020;21.378;2023-07-30T04:37:42;11.80;;;10.52;;
63112;SDS011;49206;48.020;21.378;2023-07-30T04:38:45;14.23;;;10.15;;
63112;SDS011;49206;48.020;21.378;2023-07-30T04:39:49;12.02;;;10.07;;
63112;SDS011;49206;48.020;21.378;2023-07-30T04:41:54;13.90;;;11.00;;
63112;SDS011;49206;48.020;21.378;2023-07-30T04:42:57;13.02;;;11.18;;
63112;SDS011;49206;48.020;21.378;2023-07-30T04:44:00;14.18;;;10.95;;
63112;SDS011;49206;48.020;21.378;2023-07-30T04:45:03;11.90;;;10.45;;
63112;SDS011;49206;48.020;21.378;2023-07-30T04:46:08;12.13;;;10.82;;
63112;SDS011;49206;48.020;21.378;2023-07-30T04:47:13;14.05;;;10.20;;
63112;SDS011;49206;48.020;21.378;2023-07-30T04:48:16;14.48;;;10.50;;
63112;SDS011;49206;48.020;21.378;2023-07-30T04:49:18;12.30;;;10.70;;
63112;SDS011;49206;48.020;21.378;2023-07-30T04:50:21;12.18;;;10.23;;
63112;SDS011;49206;48.020;21.378;2023-07-30T04:51:24;11.35;;;10.15;;
63112;SDS011;49206;48.020;21.378;2023-07-30T04:52:26;15.25;;;10.80;;
63112;SDS011;49206;48.020;21.378;2023-07-30T04:53:29;11.55;;;9.38;;
63112;SDS011;49206;48.020;21.378;2023-07-30T04:54:31;11.65;;;10.45;;
63112;SDS011;49206;48.020;21.378;2023-07-30T04:55:34;11.30;;;9.75;;
63112;SDS011;49206;48.020;21.378;2023-07-30T04:56:36;12.95;;;10.48;;
63112;SDS011;49206;48.020;21.378;2023-07-30T04:57:39;12.32;;;10.00;;
63112;SDS011;49206;48.020;21.378;2023-07-30T04:58:41;13.60;;;10.73;;
63112;SDS011;49206;48.020;21.378;2023-07-30T04:59:44;11.88;;;9.77;;
63112;SDS011;49206;48.020;21.378;2023-07-30T05:00:46;13.10;;;9.95;;
63112;SDS011;49206;48.020;21.378;2023-07-30T05:01:49;11.50;;;9.60;;
63112;SDS011;49206;48.020;21.378;2023-07-30T05:02:51;12.50;;;10.38;;
63112;SDS011;49206;48.020;21.378;2023-07-30T05:03:54;14.23;;;10.82;;
63112;SDS011;49206;48.020;21.378;2023-07-30T05:04:56;10.88;;;9.57;;
63112;SDS011;49206;48.020;21.378;2023-07-30T05:05:59;12.43;;;9.52;;
63112;SDS011;49206;48.020;21.378;2023-07-30T05:07:01;12.30;;;10.05;;
63112;SDS011;49206;48.020;21.378;2023-07-30T05:08:03;12.77;;;10.02;;
63112;SDS011;49206;48.020;21.378;2023-07-30T05:09:06;10.50;;;9.13;;
63112;SDS011;49206;48.020;21.378;2023-07-30T05:10:08;11.38;;;9.75;;
63112;SDS011;49206;48.020;21.378;2023-07-30T05:11:12;10.93;;;9.27;;
63112;SDS011;49206;48.020;21.378;2023-07-30T05:12:15;11.25;;;9.30;;
63112;SDS011;49206;48.020;21.378;2023-07-30T05:13:17;12.35;;;10.00;;
63112;SDS011;49206;48.020;21.378;2023-07-30T05:14:20;10.60;;;9.00;;
63112;SDS011;49206;48.020;21.378;2023-07-30T05:15:22;12.88;;;9.80;;
63112;SDS011;49206;48.020;21.378;2023-07-30T05:16:24;11.98;;;9.30;;
63112;SDS011;49206;48.020;21.378;2023-07-30T05:17:27;12.50;;;9.43;;
63112;SDS011;49206;48.020;21.378;2023-07-30T05:18:29;12.52;;;10.10;;
63112;SDS011;49206;48.020;21.378;2023-07-30T05:19:32;10.55;;;9.55;;
63112;SDS011;49206;48.020;21.378;2023-07-30T05:20:34;12.80;;;9.18;;
63112;SDS011;49206;48.020;21.378;2023-07-30T05:21:36;9.43;;;8.43;;
63112;SDS011;49206;48.020;21.378;2023-07-30T05:22:39;11.98;;;9.07;;
63112;SDS011;49206;48.020;21.378;2023-07-30T05:23:42;11.43;;;8.98;;
63112;SDS011;49206;48.020;21.378;2023-07-30T05:24:44;9.55;;;8.38;;
63112;SDS011;49206;48.020;21.378;2023-07-30T05:25:46;12.57;;;8.60;;
63112;SDS011;49206;48.020;21.378;2023-07-30T05:26:49;13.63;;;8.80;;
63112;SDS011;49206;48.020;21.378;2023-07-30T05:27:52;10.90;;;8.00;;
63112;SDS011;49206;48.020;21.378;2023-07-30T05:28:54;9.73;;;8.38;;
63112;SDS011;49206;48.020;21.378;2023-07-30T05:29:56;10.10;;;8.32;;
63112;SDS011;49206;48.020;21.378;2023-07-30T05:30:59;9.40;;;8.25;;
63112;SDS011;49206;48.020;21.378;2023-07-30T05:32:01;11.40;;;8.13;;
63112;SDS011;49206;48.020;21.378;2023-07-30T05:33:04;9.82;;;7.82;;
63112;SDS011;49206;48.020;21.378;2023-07-30T05:34:07;12.05;;;8.80;;
63112;SDS011;49206;48.020;21.378;2023-07-30T05:35:09;10.38;;;8.50;;
63112;SDS011;49206;48.020;21.378;2023-07-30T05:36:11;11.77;;;8.43;;
63112;SDS011;49206;48.020;21.378;2023-07-30T05:37:14;12.27;;;8.50;;
63112;SDS011;49206;48.020;21.378;2023-07-30T05:38:16;9.27;;;8.30;;
63112;SDS011;49206;48.020;21.378;2023-07-30T05:39:19;9.02;;;7.53;;
63112;SDS011;49206;48.020;21.378;2023-07-30T05:40:22;10.35;;;7.53;;
63112;SDS011;49206;48.020;21.378;2023-07-30T05:41:24;9.95;;;8.30;;
63112;SDS011;49206;48.020;21.378;2023-07-30T05:42:26;11.18;;;7.25;;
63112;SDS011;49206;48.020;21.378;2023-07-30T05:43:29;11.13;;;7.15;;
63112;SDS011;49206;48.020;21.378;2023-07-30T05:44:32;11.20;;;6.97;;
63112;SDS011;49206;48.020;21.378;2023-07-30T05:45:35;8.75;;;7.32;;
63112;SDS011;49206;48.020;21.378;2023-07-30T05:46:38;7.75;;;6.68;;
63112;SDS011;49206;48.020;21.378;2023-07-30T05:47:40;9.23;;;7.32;;
63112;SDS011;49206;48.020;21.378;2023-07-30T05:48:42;10.48;;;6.88;;
63112;SDS011;49206;48.020;21.378;2023-07-30T05:49:45;8.45;;;6.00;;
63112;SDS011;49206;48.020;21.378;2023-07-30T05:50:47;9.48;;;6.15;;
63112;SDS011;49206;48.020;21.378;2023-07-30T05:51:50;6.35;;;5.55;;
63112;SDS011;49206;48.020;21.378;2023-07-30T05:52:53;7.80;;;6.32;;
63112;SDS011;49206;48.020;21.378;2023-07-30T05:53:55;7.30;;;5.75;;
63112;SDS011;49206;48.020;21.378;2023-07-30T05:54:58;5.65;;;5.03;;
63112;SDS011;49206;48.020;21.378;2023-07-30T05:56:00;6.03;;;5.35;;
63112;SDS011;49206;48.020;21.378;2023-07-30T05:57:03;7.35;;;5.30;;
63112;SDS011;49206;48.020;21.378;2023-07-30T05:58:06;6.05;;;5.45;;
63112;SDS011;49206;48.020;21.378;2023-07-30T05:59:08;7.00;;;5.15;;
63112;SDS011;49206;48.020;21.378;2023-07-30T06:00:10;6.53;;;4.93;;
63112;SDS011;49206;48.020;21.378;2023-07-30T06:01:13;5.05;;;4.53;;
63112;SDS011;49206;48.020;21.378;2023-07-30T06:02:16;5.80;;;4.15;;
63112;SDS011;49206;48.020;21.378;2023-07-30T06:03:19;8.15;;;5.13;;
63112;SDS011;49206;48.020;21.378;2023-07-30T06:04:21;4.90;;;4.15;;
63112;SDS011;49206;48.020;21.378;2023-07-30T06:05:23;7.80;;;4.90;;
63112;SDS011;49206;48.020;21.378;2023-07-30T06:06:26;6.13;;;4.30;;
63112;SDS011;49206;48.020;21.378;2023-07-30T06:07:29;5.22;;;4.72;;
63112;SDS011;49206;48.020;21.378;2023-07-30T06:08:31;8.43;;;4.82;;
63112;SDS011;49206;48.020;21.378;2023-07-30T06:09:34;6.47;;;4.22;;
63112;SDS011;49206;48.020;21.378;2023-07-30T06:10:36;5.80;;;4.32;;
63112;SDS011;49206;48.020;21.378;2023-07-30T06:11:40;5.60;;;4.20;;